createdAt,value
2018-02-06T00:02:24.881Z,52.13
2018-02-06T00:04:52.433Z,54.17
2018-02-06T00:07:20.365Z,53.17
2018-02-06T00:09:47.957Z,52.30
2018-02-06T00:12:15.517Z,53.30
2018-02-06T00:14:43.107Z,51.20
2018-02-06T00:17:10.646Z,49.27
2018-02-06T00:19:38.218Z,50.13
2018-02-06T00:22:05.872Z,50.10
2018-02-06T00:24:33.440Z,51.00
2018-02-06T00:27:01.033Z,50.20
2018-02-06T00:29:28.570Z,47.53
2018-02-06T00:31:56.671Z,49.23
2018-02-06T00:34:24.787Z,48.20
2018-02-06T00:36:52.326Z,50.70
2018-02-06T00:39:19.924Z,49.57
2018-02-06T00:42:04.922Z,50.00
2018-02-06T00:44:33.000Z,48.93
2018-02-06T00:47:00.560Z,49.07
2018-02-06T00:49:28.105Z,55.67
2018-02-06T00:51:55.694Z,52.07
2018-02-06T00:54:24.484Z,49.50
2018-02-06T00:56:52.076Z,48.83
2018-02-06T00:59:20.005Z,50.43
2018-02-06T01:01:47.555Z,48.70
2018-02-06T01:04:15.155Z,49.27
2018-02-06T01:06:42.700Z,49.40
2018-02-06T01:09:10.273Z,50.53
2018-02-06T01:11:37.866Z,49.17
2018-02-06T01:14:05.452Z,49.67
2018-02-06T01:16:33.004Z,51.10
2018-02-06T01:19:00.587Z,51.13
2018-02-06T01:21:28.674Z,49.50
2018-02-06T01:23:56.293Z,53.83
2018-02-06T01:26:24.114Z,52.97
2018-02-06T01:28:51.651Z,53.70
2018-02-06T01:31:19.590Z,56.23
2018-02-06T01:33:47.134Z,53.70
2018-02-06T01:36:14.744Z,54.10
2018-02-06T01:38:42.307Z,55.57
2018-02-06T01:41:09.872Z,58.50
2018-02-06T01:43:37.473Z,56.23
2018-02-06T01:46:05.199Z,53.17
2018-02-06T01:48:33.726Z,57.80
2018-02-06T01:51:01.288Z,60.23
2018-02-06T01:53:28.887Z,57.27
2018-02-06T01:55:56.443Z,58.73
2018-02-06T01:58:24.044Z,60.40
2018-02-06T02:00:51.635Z,63.00
2018-02-06T02:03:19.192Z,62.67
2018-02-06T02:05:46.819Z,64.43
2018-02-06T02:08:14.761Z,64.60
2018-02-06T02:10:42.832Z,63.87
2018-02-06T02:13:10.435Z,61.70
2018-02-06T02:15:38.014Z,58.97
2018-02-06T02:18:05.562Z,60.97
2018-02-06T02:20:33.263Z,54.90
2018-02-06T02:23:00.858Z,52.47
2018-02-06T02:25:28.414Z,54.37
2018-02-06T02:27:56.019Z,56.93
2018-02-06T02:30:23.602Z,55.47
2018-02-06T02:32:51.154Z,54.57
2018-02-06T02:35:18.772Z,56.73
2018-02-06T02:37:46.323Z,57.67
2018-02-06T02:40:14.298Z,53.57
2018-02-06T04:40:49.227Z,42.77
2018-02-06T04:43:16.805Z,40.50
2018-02-06T04:45:44.396Z,42.23
2018-02-06T04:48:11.986Z,41.53
2018-02-06T04:50:39.527Z,40.63
2018-02-06T04:53:07.115Z,40.73
2018-02-06T04:55:34.654Z,39.77
2018-02-06T04:58:02.235Z,41.10
2018-02-06T05:00:29.774Z,41.67
2018-02-06T05:02:57.997Z,42.83
2018-02-06T05:05:25.543Z,44.23
2018-02-06T05:07:53.131Z,46.27
2018-02-06T05:10:20.722Z,48.87
2018-02-06T05:12:48.275Z,62.40
2018-02-06T05:15:16.471Z,92.43
2018-02-06T05:17:44.032Z,109.07
2018-02-06T05:20:11.634Z,77.77
2018-02-06T05:22:39.186Z,86.40
2018-02-06T05:25:06.744Z,84.70
2018-02-06T05:27:34.325Z,86.43
2018-02-06T05:30:01.919Z,82.03
2018-02-06T05:32:29.524Z,79.97
2018-02-06T05:34:57.068Z,100.10
2018-02-06T05:37:24.663Z,93.97
2018-02-06T05:39:52.267Z,116.47
2018-02-06T05:42:19.869Z,119.50
2018-02-06T05:44:47.505Z,103.97
2018-02-06T05:47:15.274Z,108.83
2018-02-06T05:49:42.827Z,105.00
2018-02-06T05:52:10.497Z,110.90
2018-02-06T05:54:38.095Z,99.37
2018-02-06T05:57:06.093Z,106.40
2018-02-06T05:59:33.685Z,96.83
2018-02-06T06:02:01.836Z,88.47
2018-02-06T06:04:29.459Z,76.97
2018-02-06T06:06:57.020Z,75.93
2018-02-06T06:09:24.637Z,85.80
2018-02-06T06:11:52.192Z,78.55
2018-02-06T06:14:19.800Z,65.73
2018-02-06T06:16:47.400Z,70.90
2018-02-06T06:19:15.447Z,62.70
2018-02-06T06:21:43.093Z,59.92
2018-02-06T06:24:11.471Z,60.80
2018-02-06T06:26:39.196Z,55.73
2018-02-06T06:29:07.176Z,56.17
2018-02-06T06:31:34.776Z,60.10
2018-02-06T06:34:03.102Z,65.83
2018-02-06T06:36:30.660Z,65.78
2018-02-06T06:38:58.253Z,60.37
2018-02-06T06:41:26.089Z,64.20
2018-02-06T06:43:53.978Z,61.07
2018-02-06T06:46:21.688Z,56.83
2018-02-06T06:48:49.283Z,63.13
2018-02-06T06:51:17.130Z,59.38
2018-02-06T06:53:44.695Z,68.57
2018-02-06T06:56:13.066Z,64.67
2018-02-06T06:58:40.670Z,73.93
2018-02-06T07:01:08.731Z,88.97
2018-02-06T07:03:36.304Z,87.57
2018-02-06T07:06:05.313Z,86.93
2018-02-06T07:08:33.338Z,91.78
2018-02-06T07:11:01.901Z,91.80
2018-02-06T07:13:29.674Z,86.00
2018-02-06T07:15:57.282Z,77.67
2018-02-06T07:18:25.309Z,190.23
2018-02-06T07:20:52.866Z,283.13
2018-02-06T07:23:22.052Z,138.68
2018-02-06T07:25:49.660Z,103.75
2018-02-06T07:28:17.560Z,98.90
2018-02-06T07:30:45.496Z,105.32
2018-02-06T07:33:13.144Z,105.07
2018-02-06T07:35:41.279Z,108.82
2018-02-06T07:38:08.832Z,94.27
2018-02-06T07:40:36.780Z,85.77
2018-02-06T07:43:05.079Z,92.22
2018-02-06T07:45:33.796Z,85.50
2018-02-06T07:48:02.298Z,81.18
2018-02-06T07:50:30.193Z,75.33
2018-02-06T07:52:59.817Z,81.18
2018-02-06T07:55:27.441Z,69.40
2018-02-06T07:57:55.511Z,67.00
2018-02-06T08:00:24.067Z,67.73
2018-02-06T08:02:51.673Z,62.40
2018-02-06T08:05:19.228Z,63.50
2018-02-06T08:07:46.788Z,63.10
2018-02-06T08:10:14.477Z,72.75
2018-02-06T08:12:42.037Z,63.43
2018-02-06T08:15:09.676Z,71.90
2018-02-06T08:17:37.236Z,67.60
2018-02-06T08:20:04.792Z,62.33
2018-02-06T08:22:32.396Z,71.03
2018-02-06T08:25:00.138Z,73.43
2018-02-06T08:27:27.710Z,76.93
2018-02-06T08:29:55.268Z,69.40
2018-02-06T08:32:22.869Z,79.13
2018-02-06T08:34:50.431Z,74.50
2018-02-06T08:37:18.060Z,77.77
2018-02-06T08:39:45.611Z,90.77
2018-02-06T08:42:13.218Z,82.13
2018-02-06T08:44:40.792Z,93.30
2018-02-06T08:47:08.408Z,70.17
2018-02-06T08:49:35.991Z,75.25
2018-02-06T08:52:03.602Z,84.72
2018-02-06T08:54:31.194Z,82.40
2018-02-06T08:56:58.808Z,77.97
2018-02-06T08:59:26.379Z,73.73
2018-02-06T09:01:53.967Z,71.40
2018-02-06T09:05:22.603Z,68.07
2018-02-06T09:07:50.268Z,72.87
2018-02-06T09:10:17.816Z,71.20
2018-02-06T09:12:46.009Z,66.17
2018-02-06T09:15:13.558Z,69.93
2018-02-06T09:17:41.838Z,67.57
2018-02-06T09:20:09.431Z,65.43
2018-02-06T09:22:37.032Z,68.70
2018-02-06T09:25:04.583Z,72.53
2018-02-06T09:27:33.133Z,62.97
2018-02-06T09:30:01.516Z,58.87
2018-02-06T09:32:29.133Z,64.15
2018-02-06T09:34:56.734Z,61.60
2018-02-06T09:37:24.347Z,71.97
2018-02-06T09:39:51.895Z,59.50
2018-02-06T09:42:19.490Z,58.50
2018-02-06T09:44:47.855Z,63.20
2018-02-06T09:47:15.432Z,57.60
2018-02-06T09:49:42.974Z,58.30
2018-02-06T09:52:10.570Z,56.07
2018-02-06T09:54:38.113Z,64.93
2018-02-06T09:57:05.663Z,61.53
2018-02-06T09:59:34.127Z,63.28
2018-02-06T10:02:02.873Z,57.90
2018-02-06T10:04:30.427Z,60.00
2018-02-06T10:06:58.019Z,59.80
2018-02-06T10:09:25.606Z,54.20
2018-02-06T10:11:53.374Z,58.93
2018-02-06T10:14:20.966Z,53.07
2018-02-06T10:16:48.528Z,51.83
2018-02-06T10:19:16.097Z,52.87
2018-02-06T10:21:43.677Z,51.13
2018-02-06T10:24:12.151Z,52.07
2018-02-06T10:26:39.698Z,50.13
2018-02-06T10:29:07.724Z,50.47
2018-02-06T10:31:36.067Z,49.47
2018-02-06T10:34:03.751Z,48.57
2018-02-06T10:36:32.436Z,47.20
2018-02-06T10:38:59.994Z,50.63
2018-02-06T10:41:28.379Z,62.05
2018-02-06T10:43:56.156Z,55.72
2018-02-06T10:46:23.747Z,58.50
2018-02-06T10:48:51.682Z,52.95
2018-02-06T10:51:19.448Z,55.03
2018-02-06T10:53:46.997Z,52.47
2018-02-06T10:56:14.621Z,49.83
2018-02-06T10:58:42.235Z,50.33
2018-02-06T11:01:09.818Z,50.53
2018-02-06T11:03:37.411Z,57.65
2018-02-06T11:06:04.993Z,59.17
2018-02-06T11:08:32.538Z,57.42
2018-02-06T11:11:00.514Z,53.03
2018-02-06T11:13:28.673Z,61.30
2018-02-06T11:15:56.238Z,55.12
2018-02-06T11:18:23.847Z,53.87
2018-02-06T11:20:51.426Z,61.50
2018-02-06T11:23:19.029Z,56.93
2018-02-06T11:25:46.565Z,65.18
2018-02-06T11:28:14.165Z,67.00
2018-02-06T11:30:42.708Z,57.53
2018-02-06T11:33:10.326Z,71.10
2018-02-06T11:35:38.883Z,68.77
2018-02-06T11:38:06.434Z,56.57
2018-02-06T11:40:34.286Z,55.47
2018-02-06T11:43:01.830Z,68.55
2018-02-06T11:45:29.648Z,64.77
2018-02-06T11:47:57.189Z,60.53
2018-02-06T11:50:24.765Z,61.93
2018-02-06T11:52:52.355Z,65.00
2018-02-06T11:55:19.904Z,58.97
2018-02-06T11:57:47.494Z,66.43
2018-02-06T12:00:15.131Z,55.77
2018-02-06T12:02:42.713Z,59.43
2018-02-06T12:05:10.313Z,57.08
2018-02-06T12:07:38.121Z,83.90
2018-02-06T12:10:06.091Z,59.43
2018-02-06T12:12:33.705Z,70.47
2018-02-06T12:15:01.246Z,56.17
2018-02-06T12:17:29.095Z,58.47
2018-02-06T12:19:56.674Z,56.80
2018-02-06T12:22:26.797Z,56.63
2018-02-06T12:24:55.106Z,53.85
2018-02-06T12:27:22.656Z,53.90
2018-02-06T12:29:50.290Z,56.75
2018-02-06T12:32:17.842Z,89.03
2018-02-06T12:34:46.134Z,81.93
2018-02-06T12:37:13.685Z,55.23
2018-02-06T12:39:41.244Z,60.57
2018-02-06T12:42:09.320Z,55.42
2018-02-06T12:44:37.312Z,59.97
2018-02-06T12:47:05.042Z,54.80
2018-02-06T12:49:32.582Z,57.08
2018-02-06T12:52:00.193Z,56.88
2018-02-06T12:54:28.279Z,57.35
2018-02-06T12:56:55.849Z,58.58
2018-02-06T12:59:23.453Z,59.63
2018-02-06T13:01:51.017Z,52.80
2018-02-06T13:04:22.721Z,52.67
2018-02-06T13:06:50.297Z,57.60
2018-02-06T13:09:17.959Z,58.90
2018-02-06T13:11:45.511Z,61.83
2018-02-06T13:14:13.125Z,53.83
2018-02-06T13:16:40.711Z,52.67
2018-02-06T13:19:08.262Z,55.87
2018-02-06T13:21:35.944Z,55.17
2018-02-06T13:24:03.486Z,56.50
2018-02-06T13:26:31.093Z,50.87
2018-02-06T13:28:58.673Z,56.08
2018-02-06T13:31:26.272Z,59.40
2018-02-06T13:33:54.071Z,57.25
2018-02-06T13:36:22.301Z,51.53
2018-02-06T13:38:49.885Z,52.83
2018-02-06T13:41:17.423Z,47.07
2018-02-06T13:43:45.728Z,46.80
2018-02-06T13:46:13.302Z,53.28
2018-02-06T13:48:41.033Z,54.55
2018-02-06T13:51:08.622Z,53.70
2018-02-06T13:53:36.172Z,48.07
2018-02-06T13:56:03.808Z,45.80
2018-02-06T13:58:31.374Z,50.67
2018-02-06T14:00:58.914Z,48.50
2018-02-06T14:03:26.502Z,48.10
2018-02-06T14:05:54.916Z,47.97
2018-02-06T14:08:22.530Z,55.50
2018-02-06T14:10:51.181Z,55.63
2018-02-06T14:13:19.816Z,49.87
2018-02-06T14:15:47.922Z,56.20
2018-02-06T14:18:15.715Z,52.40
2018-02-06T14:20:45.154Z,54.72
2018-02-06T14:23:13.623Z,47.03
2018-02-06T14:25:41.464Z,51.23
2018-02-06T14:28:09.012Z,54.90
2018-02-06T14:30:36.606Z,50.67
2018-02-06T14:33:04.137Z,49.77
2018-02-06T14:35:31.710Z,49.53
2018-02-06T14:37:59.433Z,47.80
2018-02-06T14:40:26.979Z,51.63
2018-02-06T14:42:54.894Z,45.93
2018-02-06T14:45:23.434Z,46.93
2018-02-06T14:47:52.200Z,44.93
2018-02-06T14:50:19.773Z,45.80
2018-02-06T14:52:48.132Z,44.33
2018-02-06T14:55:15.788Z,44.97
2018-02-06T14:57:43.339Z,44.50
2018-02-06T15:00:10.893Z,46.23
2018-02-06T15:02:38.498Z,44.97
2018-02-06T15:05:06.052Z,43.63
2018-02-06T15:07:33.643Z,45.47
2018-02-06T15:10:01.234Z,45.23
2018-02-06T15:12:28.787Z,43.20
2018-02-06T15:14:57.042Z,44.20
2018-02-06T15:17:25.065Z,44.40
2018-02-06T15:19:53.004Z,43.87
2018-02-06T15:22:20.900Z,43.43
2018-02-06T15:24:48.474Z,45.03
2018-02-06T15:27:17.414Z,45.50
2018-02-06T15:29:45.005Z,45.00
2018-02-06T15:32:12.806Z,43.33
2018-02-06T15:34:41.347Z,43.73
2018-02-06T15:37:08.947Z,43.30
2018-02-06T15:39:37.617Z,42.67
2018-02-06T15:42:05.186Z,45.27
2018-02-06T15:44:33.048Z,46.30
2018-02-06T15:47:00.599Z,44.57
2018-02-06T15:49:28.282Z,46.07
2018-02-06T15:51:55.841Z,43.30
2018-02-06T15:54:23.805Z,45.70
2018-02-06T15:56:51.349Z,44.03
2018-02-06T15:59:18.979Z,44.37
2018-02-06T16:01:47.192Z,43.93
2018-02-06T16:04:14.802Z,43.93
2018-02-06T16:06:43.346Z,45.97
2018-02-06T16:09:10.950Z,45.63
2018-02-06T16:11:38.961Z,45.87
2018-02-06T16:14:08.445Z,41.60
2018-02-06T16:16:37.252Z,44.43
2018-02-06T16:19:05.361Z,56.57
2018-02-06T16:21:33.214Z,69.27
2018-02-06T16:24:01.923Z,61.57
2018-02-06T16:26:30.245Z,63.90
2018-02-06T16:28:57.850Z,59.63
2018-02-06T16:31:25.998Z,67.53
2018-02-06T16:33:53.909Z,66.53
2018-02-06T16:36:22.622Z,63.43
2018-02-06T16:38:50.582Z,59.03
2018-02-06T16:41:19.055Z,59.50
2018-02-06T16:43:47.041Z,58.93
2018-02-06T16:46:15.447Z,56.10
2018-02-06T16:48:43.489Z,54.93
2018-02-06T16:51:11.627Z,54.87
2018-02-06T16:53:39.722Z,52.57
2018-02-06T16:56:07.859Z,52.47
2018-02-06T16:58:37.371Z,52.43
2018-02-06T17:01:05.733Z,50.50
2018-02-06T17:03:33.964Z,52.03
2018-02-06T17:06:02.601Z,54.33
2018-02-06T17:08:30.772Z,57.77
2018-02-06T17:10:59.563Z,56.47
2018-02-06T17:13:28.458Z,60.33
2018-02-06T17:15:56.833Z,57.00
2018-02-06T17:18:25.477Z,59.43
2018-02-06T17:20:53.474Z,61.87
2018-02-06T17:23:21.910Z,68.70
2018-02-06T17:25:51.295Z,85.83
2018-02-06T17:28:20.074Z,82.53
2018-02-06T17:30:48.562Z,84.33
2018-02-06T17:33:17.023Z,89.23
2018-02-06T17:35:44.998Z,90.20
2018-02-06T17:38:13.799Z,103.07
2018-02-06T17:40:42.160Z,113.10
2018-02-06T17:43:10.865Z,117.50
2018-02-06T17:45:39.244Z,105.90
2018-02-06T17:48:07.717Z,114.23
2018-02-06T17:50:38.723Z,100.40
2018-02-06T17:53:07.433Z,105.20
2018-02-06T17:55:36.441Z,135.57
2018-02-06T17:58:05.726Z,120.03
2018-02-06T18:00:35.152Z,106.27
2018-02-06T18:03:04.150Z,128.07
2018-02-06T18:05:33.326Z,122.10
2018-02-06T18:08:02.314Z,128.13
2018-02-06T18:10:30.698Z,120.57
2018-02-06T18:13:01.505Z,119.87
2018-02-06T18:15:30.211Z,105.07
2018-02-06T18:17:59.576Z,88.10
2018-02-06T18:20:28.168Z,85.30
2018-02-06T18:22:56.582Z,98.43
2018-02-06T18:25:25.268Z,118.17
2018-02-06T18:27:55.417Z,120.80
2018-02-06T18:30:25.235Z,104.97
2018-02-06T18:32:53.783Z,101.77
2018-02-06T18:35:22.488Z,118.73
2018-02-06T18:37:51.094Z,129.60
2018-02-06T18:40:19.842Z,114.47
2018-02-06T18:42:49.177Z,113.93
2018-02-06T18:45:18.889Z,113.83
2018-02-06T18:47:47.020Z,122.10
2018-02-06T18:50:16.131Z,105.77
2018-02-06T18:52:44.807Z,108.00
2018-02-06T18:55:13.122Z,98.57
2018-02-06T18:57:42.176Z,94.80
2018-02-06T19:00:10.857Z,99.27
2018-02-06T19:02:40.799Z,97.23
2018-02-06T19:05:10.020Z,113.83
2018-02-06T19:07:39.384Z,114.23
2018-02-06T19:10:08.332Z,107.20
2018-02-06T19:12:36.375Z,107.37
2018-02-06T19:15:05.228Z,108.27
2018-02-06T19:17:34.877Z,115.27
2018-02-06T19:20:03.436Z,112.13
2018-02-06T19:22:31.675Z,117.97
2018-02-06T19:25:01.099Z,116.80
2018-02-06T19:27:29.479Z,113.97
2018-02-06T19:29:58.270Z,116.10
2018-02-06T19:32:27.576Z,115.50
2018-02-06T19:34:55.845Z,121.37
2018-02-06T19:37:24.644Z,116.13
2018-02-06T19:39:53.546Z,117.30
2018-02-06T19:42:23.119Z,114.27
2018-02-06T19:44:51.960Z,117.53
2018-02-06T19:47:21.660Z,115.73
2018-02-06T19:49:50.517Z,116.87
2018-02-06T19:52:19.855Z,122.43
2018-02-06T19:54:49.935Z,114.83
2018-02-06T19:57:19.487Z,112.90
2018-02-06T19:59:48.333Z,117.40
2018-02-06T20:02:17.363Z,117.27
2018-02-06T20:04:46.219Z,116.23
2018-02-06T20:07:15.235Z,121.87
2018-02-06T20:09:44.852Z,115.57
2018-02-06T20:12:14.733Z,120.60
2018-02-06T20:14:43.076Z,125.00
2018-02-06T20:17:12.213Z,121.17
2018-02-06T20:19:40.279Z,117.90
2018-02-06T20:22:08.383Z,121.90
2018-02-06T20:24:37.560Z,117.57
2018-02-06T20:27:06.070Z,117.33
2018-02-06T20:29:34.633Z,125.87
2018-02-06T20:32:02.684Z,129.27
2018-02-06T20:34:30.943Z,132.43
2018-02-06T20:36:58.961Z,126.43
2018-02-06T20:39:26.989Z,119.03
2018-02-06T20:41:56.153Z,124.83
2018-02-06T20:44:24.509Z,122.43
2018-02-06T20:46:52.741Z,128.93
2018-02-06T20:49:21.031Z,128.93
2018-02-06T20:51:49.404Z,124.00
2018-02-06T20:54:17.362Z,122.50
2018-02-06T20:56:45.438Z,119.63
2018-02-06T20:59:13.599Z,106.73
2018-02-06T21:01:41.680Z,106.77
2018-02-06T21:04:10.984Z,104.53
2018-02-06T21:06:39.056Z,104.33
2018-02-06T21:09:07.116Z,109.47
2018-02-06T21:11:34.951Z,104.80
2018-02-06T21:14:02.905Z,100.10
2018-02-06T21:16:30.990Z,96.33
2018-02-06T21:18:58.947Z,103.23
2018-02-06T21:21:26.534Z,97.87
2018-02-06T21:23:55.211Z,96.30
2018-02-06T21:26:22.783Z,89.40
2018-02-06T21:28:50.445Z,90.90
2018-02-06T21:31:18.030Z,90.63
2018-02-06T21:33:45.575Z,91.97
2018-02-06T21:36:13.215Z,90.87
2018-02-06T21:38:40.745Z,84.07
2018-02-06T21:41:08.339Z,89.83
2018-02-06T21:43:35.893Z,90.50
2018-02-06T21:46:03.876Z,85.30
2018-02-06T21:48:31.461Z,84.97
2018-02-06T21:50:59.866Z,85.57
2018-02-06T21:53:27.406Z,81.93
2018-02-06T21:55:54.960Z,89.23
2018-02-06T21:58:22.552Z,94.30
2018-02-06T22:00:50.157Z,91.13
2018-02-06T22:03:17.737Z,89.43
2018-02-06T22:05:45.284Z,88.13
2018-02-06T22:08:13.684Z,86.53
2018-02-06T22:10:41.224Z,85.40
2018-02-06T22:13:08.968Z,86.77
2018-02-06T22:15:36.510Z,84.33
2018-02-06T22:18:04.510Z,83.53
2018-02-06T22:20:32.063Z,79.83
2018-02-06T22:22:59.790Z,85.00
2018-02-06T22:25:27.349Z,84.77
2018-02-06T22:27:54.943Z,80.10
2018-02-06T22:30:22.543Z,82.63
2018-02-06T22:32:50.086Z,79.43
2018-02-06T22:35:17.675Z,85.50
2018-02-06T22:37:45.591Z,95.03
2018-02-06T22:40:13.199Z,91.37
2018-02-06T22:42:40.778Z,82.57
2018-02-06T22:45:08.753Z,83.63
2018-02-06T22:47:36.335Z,87.97
2018-02-06T22:50:04.385Z,103.67
2018-02-06T22:52:32.591Z,95.10
2018-02-06T22:55:00.130Z,93.37
2018-02-06T22:57:27.726Z,94.90
2018-02-06T22:59:55.305Z,95.93
2018-02-06T23:02:22.894Z,107.87
2018-02-06T23:04:50.435Z,118.93
2018-02-06T23:07:18.022Z,123.30
2018-02-06T23:09:45.608Z,117.97
2018-02-06T23:12:13.200Z,111.37
2018-02-06T23:14:41.164Z,123.00
2018-02-06T23:17:08.753Z,110.33
2018-02-06T23:19:36.307Z,105.27
2018-02-06T23:22:03.870Z,105.63
2018-02-06T23:24:31.686Z,108.93
2018-02-06T23:26:59.516Z,109.43
2018-02-06T23:29:27.101Z,114.17
2018-02-06T23:31:55.022Z,110.27
2018-02-06T23:34:22.621Z,103.87
2018-02-06T23:36:50.224Z,106.17
2018-02-06T23:39:17.813Z,101.93
2018-02-06T23:41:46.299Z,99.80
2018-02-06T23:44:13.842Z,98.17
2018-02-06T23:46:41.434Z,98.03
2018-02-06T23:49:09.479Z,97.43
2018-02-06T23:51:37.057Z,96.30
2018-02-06T23:54:04.599Z,96.93
2018-02-06T23:56:32.187Z,94.00
2018-02-06T23:58:59.770Z,93.70
